createdAt,value
2022-11-07T00:01:40.049Z,4.70
2022-11-07T00:04:07.451Z,4.83
2022-11-07T00:06:37.491Z,5.53
2022-11-07T00:09:05.094Z,6.20
2022-11-07T00:11:32.336Z,6.00
2022-11-07T00:13:59.575Z,5.87
2022-11-07T00:16:28.931Z,6.20
2022-11-07T00:18:56.438Z,6.37
2022-11-07T00:21:23.740Z,6.00
2022-11-07T00:23:51.178Z,5.60
2022-11-07T00:26:18.508Z,5.50
2022-11-07T00:28:46.177Z,5.73
2022-11-07T00:31:14.889Z,6.63
2022-11-07T00:33:42.876Z,6.40
2022-11-07T00:36:17.044Z,6.60
2022-11-07T00:38:44.531Z,7.33
2022-11-07T00:41:11.878Z,7.00
2022-11-07T00:43:39.455Z,7.63
2022-11-07T00:46:08.902Z,7.17
2022-11-07T00:48:37.202Z,6.20
2022-11-07T00:51:16.375Z,7.33
2022-11-07T00:53:44.266Z,7.00
2022-11-07T00:56:14.456Z,7.53
2022-11-07T00:58:42.886Z,7.53
2022-11-07T01:01:15.374Z,8.20
2022-11-07T01:04:01.839Z,7.43
2022-11-07T01:06:31.857Z,7.40
2022-11-07T01:08:59.693Z,9.57
2022-11-07T01:11:28.251Z,7.10
2022-11-07T01:13:57.314Z,7.57
2022-11-07T01:16:25.160Z,7.00
2022-11-07T01:18:52.862Z,7.33
2022-11-07T01:21:20.383Z,9.50
2022-11-07T01:23:48.322Z,7.43
2022-11-07T01:26:16.935Z,7.37
2022-11-07T01:28:44.533Z,7.40
2022-11-07T01:31:14.308Z,6.90
2022-11-07T01:33:41.922Z,6.70
2022-11-07T01:36:14.895Z,6.70
2022-11-07T01:38:45.275Z,6.43
2022-11-07T01:41:22.577Z,7.00
2022-11-07T01:44:25.066Z,7.33
2022-11-07T01:46:55.697Z,6.30
2022-11-07T01:49:28.255Z,5.90
2022-11-07T01:52:04.522Z,5.93
2022-11-07T01:54:40.448Z,5.20
2022-11-07T01:57:13.911Z,5.70
2022-11-07T01:59:41.541Z,5.97
2022-11-07T02:02:09.660Z,5.63
2022-11-07T02:04:37.406Z,6.70
2022-11-07T02:07:15.598Z,6.00
2022-11-07T02:09:43.535Z,7.30
2022-11-07T02:12:11.589Z,6.83
2022-11-07T02:14:38.822Z,6.57
2022-11-07T02:17:06.443Z,6.77
2022-11-07T02:19:37.996Z,7.33
2022-11-07T02:22:19.480Z,8.10
2022-11-07T02:24:51.619Z,7.90
2022-11-07T02:27:22.237Z,7.47
2022-11-07T02:29:55.326Z,7.27
2022-11-07T02:32:22.635Z,8.03
2022-11-07T02:35:05.227Z,7.67
2022-11-07T02:37:37.007Z,8.27
2022-11-07T02:40:10.380Z,7.37
2022-11-07T02:42:45.216Z,7.23
2022-11-07T02:45:24.301Z,8.30
2022-11-07T02:47:51.780Z,7.60
2022-11-07T02:50:19.327Z,7.80
2022-11-07T02:52:46.716Z,7.70
2022-11-07T02:55:14.936Z,7.43
2022-11-07T02:57:42.433Z,7.60
2022-11-07T03:00:12.493Z,8.23
2022-11-07T03:02:40.183Z,6.83
2022-11-07T03:05:07.931Z,8.30
2022-11-07T03:07:35.249Z,8.07
2022-11-07T03:10:02.499Z,8.20
2022-11-07T03:12:29.895Z,8.43
2022-11-07T03:14:57.177Z,8.17
2022-11-07T03:17:24.668Z,8.33
2022-11-07T03:19:51.984Z,8.10
2022-11-07T03:22:19.423Z,7.80
2022-11-07T03:24:46.890Z,9.20
2022-11-07T03:27:15.434Z,7.97
2022-11-07T03:29:43.131Z,7.33
2022-11-07T03:32:10.777Z,7.87
2022-11-07T03:34:38.051Z,7.73
2022-11-07T03:37:05.744Z,7.07
2022-11-07T03:39:33.043Z,6.90
2022-11-07T03:42:00.309Z,7.23
2022-11-07T03:44:27.584Z,7.33
2022-11-07T03:46:54.805Z,7.10
2022-11-07T03:49:22.056Z,7.30
2022-11-07T03:51:49.438Z,7.30
2022-11-07T03:54:16.698Z,7.50
2022-11-07T03:56:44.102Z,8.17
2022-11-07T03:59:11.344Z,8.30
2022-11-07T04:01:38.746Z,8.80
2022-11-07T04:04:06.143Z,8.13
2022-11-07T04:06:33.845Z,7.87
2022-11-07T04:09:01.082Z,7.87
2022-11-07T04:11:47.263Z,7.90
2022-11-07T04:14:32.889Z,7.20
2022-11-07T04:17:18.673Z,7.80
2022-11-07T04:19:56.173Z,7.87
2022-11-07T04:22:24.836Z,8.13
2022-11-07T04:24:52.227Z,7.50
2022-11-07T04:27:38.573Z,7.77
2022-11-07T04:30:28.122Z,7.13
2022-11-07T04:32:58.221Z,6.93
2022-11-07T04:35:31.039Z,6.40
2022-11-07T04:37:59.354Z,6.80
2022-11-07T04:40:27.681Z,7.63
2022-11-07T04:42:55.340Z,8.43
2022-11-07T04:45:23.087Z,7.93
2022-11-07T04:47:50.423Z,7.50
2022-11-07T04:50:19.708Z,6.93
2022-11-07T04:52:48.063Z,6.33
2022-11-07T04:55:33.534Z,6.43
2022-11-07T04:58:01.034Z,6.23
2022-11-07T05:00:28.601Z,6.20
2022-11-07T05:02:56.307Z,6.13
2022-11-07T05:05:23.837Z,5.97
2022-11-07T05:07:51.093Z,6.27
2022-11-07T05:10:22.401Z,6.37
2022-11-07T05:12:50.402Z,6.30
2022-11-07T05:15:18.164Z,6.90
2022-11-07T05:17:46.117Z,6.63
2022-11-07T05:20:26.572Z,6.47
2022-11-07T05:23:13.438Z,6.87
2022-11-07T05:25:44.232Z,6.73
2022-11-07T05:28:14.011Z,6.50
2022-11-07T05:30:42.751Z,7.60
2022-11-07T05:33:11.901Z,7.30
2022-11-07T05:35:39.434Z,7.73
2022-11-07T05:38:07.230Z,7.93
2022-11-07T05:40:36.094Z,7.90
2022-11-07T05:43:05.838Z,8.20
2022-11-07T05:45:37.522Z,7.70
2022-11-07T05:48:07.826Z,8.63
2022-11-07T05:50:36.225Z,7.87
2022-11-07T05:53:04.729Z,8.43
2022-11-07T05:55:32.341Z,9.27
2022-11-07T05:58:05.723Z,8.60
2022-11-07T06:00:34.346Z,8.13
2022-11-07T06:03:02.027Z,8.23
2022-11-07T06:05:29.878Z,8.33
2022-11-07T06:07:57.144Z,9.07
2022-11-07T06:10:24.920Z,9.43
2022-11-07T06:13:03.697Z,8.20
2022-11-07T06:15:33.529Z,8.77
2022-11-07T06:18:05.556Z,8.60
2022-11-07T06:20:34.858Z,8.50
2022-11-07T06:23:04.480Z,8.77
2022-11-07T06:25:32.685Z,8.33
2022-11-07T06:28:08.117Z,7.77
2022-11-07T06:30:35.990Z,8.67
2022-11-07T06:33:05.854Z,8.33
2022-11-07T06:35:33.869Z,8.97
2022-11-07T06:38:05.659Z,8.07
2022-11-07T06:40:33.317Z,9.17
2022-11-07T06:43:26.946Z,8.07
2022-11-07T06:45:54.259Z,8.80
2022-11-07T06:48:21.741Z,7.70
2022-11-07T06:50:59.792Z,7.50
2022-11-07T06:53:28.035Z,8.63
2022-11-07T06:55:59.411Z,7.97
2022-11-07T06:58:26.753Z,7.90
2022-11-07T07:00:54.156Z,7.33
2022-11-07T07:03:21.431Z,7.17
2022-11-07T07:05:48.797Z,7.10
2022-11-07T07:08:16.079Z,6.50
2022-11-07T07:10:44.824Z,6.83
2022-11-07T07:13:14.179Z,6.17
2022-11-07T07:15:50.893Z,6.50
2022-11-07T07:18:19.524Z,6.97
2022-11-07T07:20:50.716Z,7.37
2022-11-07T07:23:19.754Z,5.97
2022-11-07T07:25:47.989Z,7.10
2022-11-07T07:28:15.438Z,6.63
2022-11-07T07:30:47.154Z,6.57
2022-11-07T07:33:18.241Z,6.77
2022-11-07T07:35:46.024Z,6.53
2022-11-07T07:38:13.496Z,6.73
2022-11-07T07:40:40.760Z,7.07
2022-11-07T07:43:08.001Z,6.93
2022-11-07T07:45:35.259Z,7.60
2022-11-07T07:48:02.715Z,7.03
2022-11-07T07:50:30.081Z,6.67
2022-11-07T07:52:58.502Z,7.00
2022-11-07T07:55:26.290Z,6.37
2022-11-07T07:57:53.510Z,7.23
2022-11-07T08:00:21.170Z,7.33
2022-11-07T08:02:48.784Z,6.03
2022-11-07T08:05:17.026Z,6.47
2022-11-07T08:07:48.936Z,6.67
2022-11-07T08:10:40.763Z,6.37
2022-11-07T08:13:04.994Z,6.33
2022-11-07T08:15:32.245Z,6.33
2022-11-07T08:18:04.051Z,5.83
2022-11-07T08:20:31.354Z,5.23
2022-11-07T08:23:14.516Z,6.23
2022-11-07T08:25:52.962Z,5.90
2022-11-07T08:28:22.163Z,6.07
2022-11-07T08:31:10.690Z,7.00
2022-11-07T08:33:38.141Z,5.77
2022-11-07T08:36:06.631Z,5.53
2022-11-07T08:38:35.428Z,5.87
2022-11-07T08:41:04.197Z,5.93
2022-11-07T08:43:31.576Z,5.70
2022-11-07T08:45:58.962Z,5.70
2022-11-07T08:48:26.340Z,5.60
2022-11-07T08:50:56.312Z,5.50
2022-11-07T08:53:24.708Z,5.60
2022-11-07T08:55:52.405Z,5.70
2022-11-07T08:58:19.710Z,4.90
2022-11-07T09:00:47.169Z,5.80
2022-11-07T09:06:02.947Z,5.60
2022-11-07T09:08:30.783Z,4.93
2022-11-07T09:11:05.762Z,4.90
2022-11-07T09:13:34.104Z,5.33
2022-11-07T09:16:03.446Z,5.00
2022-11-07T09:18:32.142Z,4.77
2022-11-07T09:20:59.822Z,5.20
2022-11-07T09:23:27.959Z,5.30
2022-11-07T09:25:58.149Z,5.30
2022-11-07T09:28:25.546Z,5.43
2022-11-07T09:30:54.514Z,5.60
2022-11-07T09:33:22.912Z,5.10
2022-11-07T09:35:50.368Z,5.03
2022-11-07T09:38:18.314Z,4.97
2022-11-07T09:41:05.645Z,5.53
2022-11-07T09:44:12.743Z,5.00
2022-11-07T09:46:48.548Z,4.90
2022-11-07T09:49:21.767Z,5.30
2022-11-07T09:52:19.758Z,5.00
2022-11-07T09:54:58.825Z,4.17
2022-11-07T09:57:29.008Z,4.90
2022-11-07T10:00:00.464Z,4.27
2022-11-07T10:02:42.602Z,4.37
2022-11-07T10:05:18.664Z,4.60
2022-11-07T10:07:48.826Z,5.10
2022-11-07T10:10:21.833Z,4.37
2022-11-07T10:13:20.981Z,4.50
2022-11-07T10:15:54.211Z,4.77
2022-11-07T10:18:33.434Z,4.70
2022-11-07T10:21:36.990Z,4.63
2022-11-07T10:24:09.639Z,4.40
2022-11-07T10:26:37.580Z,4.50
2022-11-07T10:29:13.728Z,4.47
2022-11-07T10:31:51.606Z,4.70
2022-11-07T10:34:31.606Z,3.57
2022-11-07T10:36:58.845Z,2.83
2022-11-07T10:39:26.140Z,3.10
2022-11-07T10:42:06.879Z,3.40
2022-11-07T10:44:35.195Z,3.97
2022-11-07T10:47:14.109Z,3.67
2022-11-07T10:49:41.448Z,3.53
2022-11-07T10:52:17.038Z,3.63
2022-11-07T10:54:47.536Z,3.60
2022-11-07T10:57:20.336Z,3.77
2022-11-07T10:59:57.484Z,3.87
2022-11-07T11:02:30.201Z,3.80
2022-11-07T11:05:05.024Z,3.97
2022-11-07T11:07:38.639Z,3.47
2022-11-07T11:10:21.985Z,3.63
2022-11-07T11:12:50.047Z,3.57
2022-11-07T11:15:19.308Z,3.00
2022-11-07T11:17:47.577Z,3.17
2022-11-07T11:20:56.147Z,2.70
2022-11-07T11:23:29.781Z,2.90
2022-11-07T11:26:21.798Z,3.20
2022-11-07T11:28:55.818Z,2.60
2022-11-07T11:31:35.610Z,2.80
2022-11-07T11:34:17.658Z,2.50
2022-11-07T11:37:01.785Z,2.77
2022-11-07T11:39:35.517Z,2.73
2022-11-07T11:42:05.120Z,2.80
2022-11-07T11:44:43.636Z,2.90
2022-11-07T11:47:14.114Z,3.20
2022-11-07T11:49:50.342Z,3.10
2022-11-07T11:52:21.704Z,2.80
2022-11-07T11:54:51.637Z,2.77
2022-11-07T11:57:26.698Z,2.97
2022-11-07T12:00:23.592Z,3.00
2022-11-07T12:03:09.780Z,2.53
2022-11-07T12:06:14.209Z,2.50
2022-11-07T12:08:50.331Z,2.27
2022-11-07T12:11:23.534Z,2.63
2022-11-07T12:13:58.672Z,2.20
2022-11-07T12:16:38.422Z,2.87
2022-11-07T12:19:24.035Z,2.50
2022-11-07T12:21:54.260Z,2.43
2022-11-07T12:24:39.709Z,2.57
2022-11-07T12:27:15.399Z,2.20
2022-11-07T12:30:35.087Z,2.33
2022-11-07T12:33:08.232Z,2.03
2022-11-07T12:36:02.595Z,2.17
2022-11-07T12:38:55.739Z,1.57
2022-11-07T12:41:31.866Z,2.00
2022-11-07T12:44:22.164Z,2.10
2022-11-07T12:46:59.276Z,1.80
2022-11-07T12:49:45.065Z,1.70
2022-11-07T12:52:25.298Z,1.77
2022-11-07T12:55:00.395Z,2.07
2022-11-07T12:57:31.764Z,2.00
2022-11-07T13:00:06.696Z,1.80
2022-11-07T13:02:52.025Z,3.33
2022-11-07T13:05:41.296Z,1.40
2022-11-07T13:08:34.917Z,1.47
2022-11-07T13:11:08.546Z,1.60
2022-11-07T13:13:38.681Z,1.80
2022-11-07T13:16:27.420Z,1.60
2022-11-07T13:18:55.363Z,1.60
2022-11-07T13:21:23.226Z,1.73
2022-11-07T13:23:50.530Z,1.90
2022-11-07T13:26:46.462Z,1.70
2022-11-07T13:29:23.344Z,1.30
2022-11-07T13:32:10.483Z,1.60
2022-11-07T13:34:58.371Z,1.47
2022-11-07T13:37:37.725Z,1.63
2022-11-07T13:40:30.907Z,2.30
2022-11-07T13:43:32.721Z,44.63
2022-11-07T13:46:05.958Z,3.60
2022-11-07T13:48:53.494Z,3.17
2022-11-07T13:51:42.714Z,2.83
2022-11-07T13:54:28.571Z,2.60
2022-11-07T13:56:56.952Z,2.77
2022-11-07T13:59:50.051Z,2.87
2022-11-07T14:02:22.822Z,1.40
2022-11-07T14:05:15.328Z,1.53
2022-11-07T14:07:43.379Z,3.10
2022-11-07T14:10:25.014Z,2.50
2022-11-07T14:13:14.510Z,2.40
2022-11-07T14:15:48.365Z,2.10
2022-11-07T14:18:18.471Z,3.10
2022-11-07T14:20:51.247Z,2.00
2022-11-07T14:23:22.167Z,3.33
2022-11-07T14:26:01.230Z,3.20
2022-11-07T14:28:39.339Z,2.30
2022-11-07T14:31:15.399Z,2.00
2022-11-07T14:33:49.364Z,1.50
2022-11-07T14:36:17.519Z,1.70
2022-11-07T14:38:51.145Z,1.53
2022-11-07T14:41:19.739Z,1.73
2022-11-07T14:43:48.271Z,1.90
2022-11-07T14:46:24.763Z,2.37
2022-11-07T14:48:53.606Z,2.17
2022-11-07T14:51:27.400Z,2.57
2022-11-07T14:54:09.869Z,2.30
2022-11-07T14:56:41.449Z,3.90
2022-11-07T14:59:12.840Z,2.40
2022-11-07T15:01:55.518Z,2.00
2022-11-07T15:04:31.168Z,1.90
2022-11-07T15:07:18.721Z,1.80
2022-11-07T15:09:46.268Z,1.90
2022-11-07T15:12:20.867Z,1.77
2022-11-07T15:15:18.200Z,4.10
2022-11-07T15:17:48.789Z,2.57
2022-11-07T15:20:31.080Z,2.30
2022-11-07T15:23:00.444Z,3.27
2022-11-07T15:25:39.734Z,3.67
2022-11-07T15:28:25.505Z,2.73
2022-11-07T15:30:58.751Z,3.30
2022-11-07T15:33:30.600Z,2.67
2022-11-07T15:36:01.989Z,3.13
2022-11-07T15:38:30.099Z,2.87
2022-11-07T15:40:57.455Z,2.60
2022-11-07T15:43:24.745Z,2.47
2022-11-07T15:45:53.575Z,2.50
2022-11-07T15:48:29.979Z,2.50
2022-11-07T15:50:57.528Z,3.30
2022-11-07T15:53:27.524Z,3.40
2022-11-07T15:55:57.582Z,8.73
2022-11-07T15:58:28.894Z,9.67
2022-11-07T16:00:57.211Z,4.93
2022-11-07T16:03:25.929Z,17.87
2022-11-07T16:05:57.433Z,4.63
2022-11-07T16:08:25.263Z,4.20
2022-11-07T16:10:57.057Z,3.70
2022-11-07T16:13:24.547Z,3.33
2022-11-07T16:15:56.918Z,3.67
2022-11-07T16:18:24.462Z,3.60
2022-11-07T16:20:52.398Z,3.63
2022-11-07T16:23:20.096Z,3.40
2022-11-07T16:25:50.559Z,4.10
2022-11-07T16:28:25.353Z,3.50
2022-11-07T16:30:53.080Z,3.43
2022-11-07T16:33:20.528Z,3.60
2022-11-07T16:35:49.808Z,3.77
2022-11-07T16:38:19.603Z,3.10
2022-11-07T16:40:47.460Z,3.50
2022-11-07T16:43:14.984Z,3.97
2022-11-07T16:45:54.114Z,3.60
2022-11-07T16:48:29.661Z,3.67
2022-11-07T16:50:57.602Z,3.60
2022-11-07T16:53:26.102Z,3.93
2022-11-07T16:55:55.498Z,3.83
2022-11-07T16:58:31.770Z,4.23
2022-11-07T17:01:05.630Z,4.53
2022-11-07T17:03:33.676Z,3.67
2022-11-07T17:06:02.572Z,4.10
2022-11-07T17:08:41.130Z,4.07
2022-11-07T17:11:12.654Z,4.10
2022-11-07T17:13:40.053Z,4.20
2022-11-07T17:16:29.927Z,5.63
2022-11-07T17:18:57.267Z,7.70
2022-11-07T17:21:29.841Z,8.37
2022-11-07T17:23:59.558Z,16.50
2022-11-07T17:26:37.690Z,23.43
2022-11-07T17:29:12.230Z,23.00
2022-11-07T17:31:41.122Z,18.90
2022-11-07T17:34:09.230Z,11.10
2022-11-07T17:36:45.938Z,9.40
2022-11-07T17:39:16.244Z,8.63
2022-11-07T17:41:45.632Z,7.30
2022-11-07T17:44:12.992Z,6.93
2022-11-07T17:46:43.694Z,8.33
2022-11-07T17:49:14.519Z,6.93
2022-11-07T17:51:42.320Z,6.83
2022-11-07T17:54:12.579Z,8.07
2022-11-07T17:56:40.921Z,7.40
2022-11-07T17:59:16.086Z,8.17
2022-11-07T18:01:44.433Z,6.90
2022-11-07T18:04:14.003Z,7.50
2022-11-07T18:06:42.881Z,6.37
2022-11-07T18:09:15.392Z,6.63
2022-11-07T18:11:43.599Z,6.37
2022-11-07T18:14:13.760Z,10.47
2022-11-07T18:16:41.773Z,13.20
2022-11-07T18:19:10.382Z,11.30
2022-11-07T18:21:37.647Z,9.63
2022-11-07T18:24:05.285Z,15.83
2022-11-07T18:26:33.448Z,14.10
2022-11-07T18:29:08.760Z,15.20
2022-11-07T18:31:37.826Z,28.03
2022-11-07T18:34:07.996Z,18.23
2022-11-07T18:36:38.342Z,11.93
2022-11-07T18:39:08.327Z,13.40
2022-11-07T18:41:35.665Z,13.90
2022-11-07T18:44:05.109Z,13.73
2022-11-07T18:46:32.822Z,14.50
2022-11-07T18:49:00.278Z,13.90
2022-11-07T18:51:27.644Z,14.60
2022-11-07T18:53:55.494Z,24.80
2022-11-07T18:56:22.821Z,15.83
2022-11-07T18:58:50.126Z,18.00
2022-11-07T19:01:21.736Z,14.17
2022-11-07T19:03:49.103Z,10.73
2022-11-07T19:06:19.409Z,8.90
2022-11-07T19:08:48.127Z,8.67
2022-11-07T19:11:21.739Z,6.30
2022-11-07T19:13:49.046Z,6.37
2022-11-07T19:16:18.153Z,6.70
2022-11-07T19:18:49.695Z,6.73
2022-11-07T19:21:20.735Z,8.23
2022-11-07T19:23:49.873Z,7.63
2022-11-07T19:26:19.258Z,7.33
2022-11-07T19:28:47.045Z,6.97
2022-11-07T19:31:14.655Z,7.33
2022-11-07T19:33:43.288Z,6.60
2022-11-07T19:36:20.071Z,6.67
2022-11-07T19:38:48.338Z,7.27
2022-11-07T19:41:16.815Z,6.83
2022-11-07T19:43:48.348Z,7.60
2022-11-07T19:46:22.964Z,8.40
2022-11-07T19:48:50.602Z,8.97
2022-11-07T19:51:21.916Z,9.77
2022-11-07T19:53:54.914Z,9.10
2022-11-07T19:56:23.210Z,8.77
2022-11-07T19:58:50.729Z,9.83
2022-11-07T20:01:20.560Z,9.00
2022-11-07T20:03:51.394Z,7.23
2022-11-07T20:06:22.007Z,7.53
2022-11-07T20:08:49.868Z,7.73
2022-11-07T20:11:22.642Z,8.77
2022-11-07T20:13:50.766Z,8.17
2022-11-07T20:16:18.832Z,6.40
2022-11-07T20:18:46.207Z,6.63
2022-11-07T20:21:17.540Z,5.97
2022-11-07T20:23:45.995Z,6.00
2022-11-07T20:26:19.500Z,6.73
2022-11-07T20:28:49.293Z,5.93
2022-11-07T20:31:29.931Z,6.17
2022-11-07T20:34:01.707Z,7.83
2022-11-07T20:36:31.247Z,8.60
2022-11-07T20:38:59.510Z,8.83
2022-11-07T20:41:27.349Z,9.37
2022-11-07T20:44:01.320Z,8.33
2022-11-07T20:46:29.207Z,7.50
2022-11-07T20:48:59.028Z,7.83
2022-11-07T20:51:26.858Z,9.43
2022-11-07T20:53:54.736Z,10.03
2022-11-07T20:56:24.212Z,8.47
2022-11-07T20:58:51.889Z,14.00
2022-11-07T21:01:22.229Z,19.87
2022-11-07T21:03:50.059Z,15.10
2022-11-07T21:06:18.238Z,17.00
2022-11-07T21:08:48.107Z,16.37
2022-11-07T21:11:16.593Z,13.87
2022-11-07T21:13:49.645Z,11.47
2022-11-07T21:16:24.340Z,12.73
2022-11-07T21:18:53.057Z,10.63
2022-11-07T21:21:22.959Z,9.87
2022-11-07T21:23:51.887Z,10.30
2022-11-07T21:26:31.799Z,10.77
2022-11-07T21:29:00.952Z,9.90
2022-11-07T21:31:31.199Z,8.20
2022-11-07T21:33:58.811Z,7.60
2022-11-07T21:36:28.703Z,6.90
2022-11-07T21:38:57.965Z,6.97
2022-11-07T21:41:25.861Z,8.20
2022-11-07T21:43:53.112Z,7.60
2022-11-07T21:46:31.621Z,7.77
2022-11-07T21:48:59.294Z,8.20
2022-11-07T21:51:29.035Z,7.73
2022-11-07T21:53:57.432Z,10.00
2022-11-07T21:56:28.855Z,8.93
2022-11-07T21:58:59.003Z,9.60
2022-11-07T22:01:27.048Z,10.07
2022-11-07T22:04:11.801Z,11.60
2022-11-07T22:06:45.441Z,10.47
2022-11-07T22:09:17.735Z,9.40
2022-11-07T22:11:45.110Z,9.77
2022-11-07T22:14:14.954Z,9.33
2022-11-07T22:16:42.638Z,8.57
2022-11-07T22:19:12.797Z,9.20
2022-11-07T22:21:40.873Z,8.93
2022-11-07T22:24:08.623Z,9.93
2022-11-07T22:26:36.199Z,10.70
2022-11-07T22:29:03.905Z,10.97
2022-11-07T22:31:31.739Z,11.60
2022-11-07T22:34:00.709Z,13.17
2022-11-07T22:36:28.706Z,13.37
2022-11-07T22:38:57.589Z,11.70
2022-11-07T22:41:27.015Z,10.87
2022-11-07T22:43:55.046Z,11.10
2022-11-07T22:46:27.427Z,9.97
2022-11-07T22:48:55.460Z,10.47
2022-11-07T22:51:25.272Z,9.90
2022-11-07T22:53:57.122Z,10.20
2022-11-07T22:56:24.820Z,9.67
2022-11-07T22:58:52.364Z,9.30
2022-11-07T23:01:25.781Z,10.60
2022-11-07T23:03:54.428Z,8.87
2022-11-07T23:06:22.755Z,10.97
2022-11-07T23:08:50.858Z,12.10
2022-11-07T23:14:11.101Z,13.07
2022-11-07T23:17:04.714Z,13.60
2022-11-07T23:19:32.019Z,11.73
2022-11-07T23:21:59.633Z,11.90
2022-11-07T23:24:27.439Z,13.73
2022-11-07T23:26:54.901Z,16.40
2022-11-07T23:29:24.141Z,15.57
2022-11-07T23:31:52.036Z,16.87
2022-11-07T23:34:21.053Z,12.70
2022-11-07T23:36:51.204Z,12.90
2022-11-07T23:39:21.122Z,12.93
2022-11-07T23:41:48.564Z,11.53
2022-11-07T23:44:16.107Z,11.57
2022-11-07T23:47:03.032Z,11.83
2022-11-07T23:49:49.469Z,18.87
2022-11-07T23:52:17.774Z,19.50
2022-11-07T23:55:03.519Z,13.87
2022-11-07T23:57:34.621Z,10.27
